sensor_id;sensor_type;location;lat;lon;timestamp;temperature;humidity
42147;DHT22;27815;43.410;11.852;2023-04-15T00:02:15;9.70;67.50
42147;DHT22;27815;43.410;11.852;2023-04-15T00:06:18;9.80;67.80
42147;DHT22;27815;43.410;11.852;2023-04-15T00:10:24;9.90;68.00
42147;DHT22;27815;43.410;11.852;2023-04-15T00:14:26;10.00;68.00
42147;DHT22;27815;43.410;11.852;2023-04-15T00:18:29;10.10;67.80
42147;DHT22;27815;43.410;11.852;2023-04-15T00:22:33;10.10;67.40
42147;DHT22;27815;43.410;11.852;2023-04-15T00:26:35;10.10;66.90
42147;DHT22;27815;43.410;11.852;2023-04-15T00:30:38;10.00;66.90
42147;DHT22;27815;43.410;11.852;2023-04-15T00:34:40;10.10;66.70
42147;DHT22;27815;43.410;11.852;2023-04-15T00:38:43;9.80;66.40
42147;DHT22;27815;43.410;11.852;2023-04-15T00:42:46;9.50;66.70
42147;DHT22;27815;43.410;11.852;2023-04-15T00:46:50;9.10;66.90
42147;DHT22;27815;43.410;11.852;2023-04-15T00:50:52;8.90;67.30
42147;DHT22;27815;43.410;11.852;2023-04-15T00:54:55;8.70;67.50
42147;DHT22;27815;43.410;11.852;2023-04-15T00:58:58;8.60;67.50
42147;DHT22;27815;43.410;11.852;2023-04-15T01:03:01;8.60;67.50
42147;DHT22;27815;43.410;11.852;2023-04-15T01:07:04;8.60;67.50
42147;DHT22;27815;43.410;11.852;2023-04-15T01:11:07;8.60;67.50
42147;DHT22;27815;43.410;11.852;2023-04-15T01:15:09;8.50;67.50
42147;DHT22;27815;43.410;11.852;2023-04-15T01:19:12;8.60;67.50
42147;DHT22;27815;43.410;11.852;2023-04-15T01:23:15;8.60;67.30
42147;DHT22;27815;43.410;11.852;2023-04-15T01:27:18;8.60;67.40
42147;DHT22;27815;43.410;11.852;2023-04-15T01:31:22;8.60;67.40
42147;DHT22;27815;43.410;11.852;2023-04-15T01:35:24;8.50;67.30
42147;DHT22;27815;43.410;11.852;2023-04-15T01:39:27;8.50;67.50
42147;DHT22;27815;43.410;11.852;2023-04-15T01:43:31;8.40;67.60
42147;DHT22;27815;43.410;11.852;2023-04-15T01:47:34;8.20;68.10
42147;DHT22;27815;43.410;11.852;2023-04-15T01:51:38;8.00;68.60
42147;DHT22;27815;43.410;11.852;2023-04-15T01:55:42;8.00;68.80
42147;DHT22;27815;43.410;11.852;2023-04-15T01:59:50;8.00;68.60
42147;DHT22;27815;43.410;11.852;2023-04-15T02:03:54;8.00;68.50
42147;DHT22;27815;43.410;11.852;2023-04-15T02:07:58;8.10;68.30
42147;DHT22;27815;43.410;11.852;2023-04-15T02:12:01;8.10;68.30
42147;DHT22;27815;43.410;11.852;2023-04-15T02:16:14;8.20;68.30
42147;DHT22;27815;43.410;11.852;2023-04-15T02:20:19;8.10;68.40
42147;DHT22;27815;43.410;11.852;2023-04-15T02:24:23;8.20;68.30
42147;DHT22;27815;43.410;11.852;2023-04-15T02:28:27;8.30;68.20
42147;DHT22;27815;43.410;11.852;2023-04-15T02:32:31;8.40;68.00
42147;DHT22;27815;43.410;11.852;2023-04-15T02:36:35;8.50;68.00
42147;DHT22;27815;43.410;11.852;2023-04-15T02:40:41;8.50;68.00
42147;DHT22;27815;43.410;11.852;2023-04-15T02:44:44;8.50;68.00
42147;DHT22;27815;43.410;11.852;2023-04-15T02:48:49;8.60;67.80
42147;DHT22;27815;43.410;11.852;2023-04-15T02:52:52;8.60;67.90
42147;DHT22;27815;43.410;11.852;2023-04-15T02:56:56;8.50;68.70
42147;DHT22;27815;43.410;11.852;2023-04-15T03:01:00;8.50;68.60
42147;DHT22;27815;43.410;11.852;2023-04-15T03:05:05;8.50;68.80
42147;DHT22;27815;43.410;11.852;2023-04-15T03:09:09;8.50;69.80
42147;DHT22;27815;43.410;11.852;2023-04-15T03:13:14;8.60;70.00
42147;DHT22;27815;43.410;11.852;2023-04-15T03:17:20;8.60;69.70
42147;DHT22;27815;43.410;11.852;2023-04-15T03:21:24;8.60;69.80
42147;DHT22;27815;43.410;11.852;2023-04-15T03:25:29;8.80;70.10
42147;DHT22;27815;43.410;11.852;2023-04-15T03:29:35;8.90;70.20
42147;DHT22;27815;43.410;11.852;2023-04-15T03:33:40;8.90;70.50
42147;DHT22;27815;43.410;11.852;2023-04-15T03:37:44;8.90;70.40
42147;DHT22;27815;43.410;11.852;2023-04-15T03:41:47;9.00;70.20
42147;DHT22;27815;43.410;11.852;2023-04-15T03:45:51;8.90;70.20
42147;DHT22;27815;43.410;11.852;2023-04-15T03:49:55;8.90;70.00
42147;DHT22;27815;43.410;11.852;2023-04-15T03:53:59;8.90;69.90
42147;DHT22;27815;43.410;11.852;2023-04-15T03:58:03;8.80;70.10
42147;DHT22;27815;43.410;11.852;2023-04-15T04:02:07;8.80;70.00
42147;DHT22;27815;43.410;11.852;2023-04-15T04:06:11;8.70;70.10
42147;DHT22;27815;43.410;11.852;2023-04-15T04:10:15;8.80;69.90
42147;DHT22;27815;43.410;11.852;2023-04-15T04:14:19;8.80;69.80
42147;DHT22;27815;43.410;11.852;2023-04-15T04:18:23;8.90;69.80
42147;DHT22;27815;43.410;11.852;2023-04-15T04:22:26;8.90;69.70
42147;DHT22;27815;43.410;11.852;2023-04-15T04:26:30;8.90;69.90
42147;DHT22;27815;43.410;11.852;2023-04-15T04:30:34;8.90;70.00
42147;DHT22;27815;43.410;11.852;2023-04-15T04:34:38;9.00;69.80
42147;DHT22;27815;43.410;11.852;2023-04-15T04:38:42;8.90;69.80
42147;DHT22;27815;43.410;11.852;2023-04-15T04:42:46;9.00;69.90
42147;DHT22;27815;43.410;11.852;2023-04-15T04:46:50;9.00;70.30
42147;DHT22;27815;43.410;11.852;2023-04-15T04:50:54;9.00;70.20
42147;DHT22;27815;43.410;11.852;2023-04-15T04:54:58;9.10;70.00
42147;DHT22;27815;43.410;11.852;2023-04-15T04:59:02;9.00;70.10
42147;DHT22;27815;43.410;11.852;2023-04-15T05:03:06;9.00;70.10
42147;DHT22;27815;43.410;11.852;2023-04-15T05:07:10;9.00;70.00
42147;DHT22;27815;43.410;11.852;2023-04-15T05:11:14;9.00;69.90
42147;DHT22;27815;43.410;11.852;2023-04-15T05:15:18;9.00;69.90
42147;DHT22;27815;43.410;11.852;2023-04-15T05:19:23;9.00;69.80
42147;DHT22;27815;43.410;11.852;2023-04-15T05:23:26;9.10;69.70
42147;DHT22;27815;43.410;11.852;2023-04-15T05:27:30;9.10;69.50
42147;DHT22;27815;43.410;11.852;2023-04-15T05:31:34;9.20;69.60
42147;DHT22;27815;43.410;11.852;2023-04-15T05:35:38;9.20;69.60
42147;DHT22;27815;43.410;11.852;2023-04-15T05:39:44;9.30;69.40
42147;DHT22;27815;43.410;11.852;2023-04-15T05:43:48;9.40;69.40
42147;DHT22;27815;43.410;11.852;2023-04-15T05:47:51;9.50;69.40
42147;DHT22;27815;43.410;11.852;2023-04-15T05:51:57;9.40;69.50
42147;DHT22;27815;43.410;11.852;2023-04-15T05:56:01;9.50;69.50
42147;DHT22;27815;43.410;11.852;2023-04-15T06:00:05;9.60;69.50
42147;DHT22;27815;43.410;11.852;2023-04-15T06:04:12;9.70;69.30
42147;DHT22;27815;43.410;11.852;2023-04-15T06:08:16;9.90;69.20
42147;DHT22;27815;43.410;11.852;2023-04-15T06:12:20;10.00;69.00
42147;DHT22;27815;43.410;11.852;2023-04-15T06:16:24;10.00;68.90
42147;DHT22;27815;43.410;11.852;2023-04-15T06:20:28;10.10;69.00
42147;DHT22;27815;43.410;11.852;2023-04-15T06:24:32;10.20;68.80
42147;DHT22;27815;43.410;11.852;2023-04-15T06:28:36;10.20;68.80
42147;DHT22;27815;43.410;11.852;2023-04-15T06:32:40;10.20;68.70
42147;DHT22;27815;43.410;11.852;2023-04-15T06:36:44;10.10;69.10
42147;DHT22;27815;43.410;11.852;2023-04-15T06:40:48;10.00;69.20
42147;DHT22;27815;43.410;11.852;2023-04-15T06:44:52;9.90;69.30
42147;DHT22;27815;43.410;11.852;2023-04-15T06:48:58;9.80;69.30
42147;DHT22;27815;43.410;11.852;2023-04-15T06:53:03;9.80;69.20
42147;DHT22;27815;43.410;11.852;2023-04-15T06:57:06;9.70;69.40
42147;DHT22;27815;43.410;11.852;2023-04-15T07:01:11;9.60;69.50
42147;DHT22;27815;43.410;11.852;2023-04-15T07:05:16;9.60;69.50
42147;DHT22;27815;43.410;11.852;2023-04-15T07:09:22;9.70;69.40
42147;DHT22;27815;43.410;11.852;2023-04-15T07:13:26;9.80;69.30
42147;DHT22;27815;43.410;11.852;2023-04-15T07:17:30;9.80;69.40
42147;DHT22;27815;43.410;11.852;2023-04-15T07:21:37;9.90;69.30
42147;DHT22;27815;43.410;11.852;2023-04-15T07:25:44;9.90;69.30
42147;DHT22;27815;43.410;11.852;2023-04-15T07:29:49;9.90;69.50
42147;DHT22;27815;43.410;11.852;2023-04-15T07:33:54;9.90;69.70
42147;DHT22;27815;43.410;11.852;2023-04-15T07:37:58;9.80;69.60
42147;DHT22;27815;43.410;11.852;2023-04-15T07:42:02;9.80;69.80
42147;DHT22;27815;43.410;11.852;2023-04-15T07:46:06;9.80;69.90
42147;DHT22;27815;43.410;11.852;2023-04-15T07:50:12;9.90;70.00
42147;DHT22;27815;43.410;11.852;2023-04-15T07:54:15;9.80;70.90
42147;DHT22;27815;43.410;11.852;2023-04-15T07:58:19;9.80;71.40
42147;DHT22;27815;43.410;11.852;2023-04-15T08:02:23;9.90;71.50
42147;DHT22;27815;43.410;11.852;2023-04-15T08:06:29;10.00;72.20
42147;DHT22;27815;43.410;11.852;2023-04-15T08:10:33;10.10;72.70
42147;DHT22;27815;43.410;11.852;2023-04-15T08:14:46;10.20;73.00
42147;DHT22;27815;43.410;11.852;2023-04-15T08:19:01;10.40;73.00
42147;DHT22;27815;43.410;11.852;2023-04-15T08:23:06;10.50;73.10
42147;DHT22;27815;43.410;11.852;2023-04-15T08:27:10;10.70;73.10
42147;DHT22;27815;43.410;11.852;2023-04-15T08:31:14;11.00;73.00
42147;DHT22;27815;43.410;11.852;2023-04-15T08:35:19;11.40;72.80
42147;DHT22;27815;43.410;11.852;2023-04-15T08:39:23;11.70;72.60
42147;DHT22;27815;43.410;11.852;2023-04-15T08:43:27;12.00;72.50
42147;DHT22;27815;43.410;11.852;2023-04-15T08:47:36;12.10;72.20
42147;DHT22;27815;43.410;11.852;2023-04-15T08:51:43;12.20;72.00
42147;DHT22;27815;43.410;11.852;2023-04-15T08:56:00;12.30;71.80
42147;DHT22;27815;43.410;11.852;2023-04-15T09:00:13;12.40;71.70
42147;DHT22;27815;43.410;11.852;2023-04-15T09:04:23;12.50;71.50
42147;DHT22;27815;43.410;11.852;2023-04-15T09:08:27;12.60;71.40
42147;DHT22;27815;43.410;11.852;2023-04-15T09:12:33;12.70;71.20
42147;DHT22;27815;43.410;11.852;2023-04-15T09:16:56;12.60;71.10
42147;DHT22;27815;43.410;11.852;2023-04-15T09:21:05;12.80;71.10
42147;DHT22;27815;43.410;11.852;2023-04-15T09:29:25;13.00;70.80
42147;DHT22;27815;43.410;11.852;2023-04-15T09:33:29;13.10;70.50
42147;DHT22;27815;43.410;11.852;2023-04-15T09:37:34;13.20;70.40
42147;DHT22;27815;43.410;11.852;2023-04-15T09:41:38;13.30;70.10
42147;DHT22;27815;43.410;11.852;2023-04-15T09:45:46;13.20;70.30
42147;DHT22;27815;43.410;11.852;2023-04-15T09:49:54;13.20;70.30
42147;DHT22;27815;43.410;11.852;2023-04-15T09:53:59;13.10;70.40
42147;DHT22;27815;43.410;11.852;2023-04-15T09:58:07;13.00;70.60
42147;DHT22;27815;43.410;11.852;2023-04-15T10:02:11;13.00;70.70
42147;DHT22;27815;43.410;11.852;2023-04-15T10:06:16;13.00;71.00
42147;DHT22;27815;43.410;11.852;2023-04-15T10:10:20;12.90;71.00
42147;DHT22;27815;43.410;11.852;2023-04-15T10:14:24;12.80;71.00
42147;DHT22;27815;43.410;11.852;2023-04-15T10:18:29;12.80;71.00
42147;DHT22;27815;43.410;11.852;2023-04-15T10:22:35;12.90;71.00
42147;DHT22;27815;43.410;11.852;2023-04-15T10:26:39;13.00;70.80
42147;DHT22;27815;43.410;11.852;2023-04-15T10:30:43;13.10;70.70
42147;DHT22;27815;43.410;11.852;2023-04-15T10:34:48;13.10;70.90
42147;DHT22;27815;43.410;11.852;2023-04-15T10:57:38;13.50;70.90
42147;DHT22;27815;43.410;11.852;2023-04-15T11:02:17;13.50;70.90
42147;DHT22;27815;43.410;11.852;2023-04-15T11:12:21;13.80;70.40
42147;DHT22;27815;43.410;11.852;2023-04-15T11:16:41;14.10;69.90
42147;DHT22;27815;43.410;11.852;2023-04-15T11:21:25;14.40;69.50
42147;DHT22;27815;43.410;11.852;2023-04-15T11:26:24;14.30;69.20
42147;DHT22;27815;43.410;11.852;2023-04-15T11:31:12;14.50;69.10
42147;DHT22;27815;43.410;11.852;2023-04-15T11:36:00;14.60;68.90
42147;DHT22;27815;43.410;11.852;2023-04-15T11:40:40;14.80;68.50
42147;DHT22;27815;43.410;11.852;2023-04-15T11:45:19;15.00;68.40
42147;DHT22;27815;43.410;11.852;2023-04-15T11:50:15;15.10;67.90
42147;DHT22;27815;43.410;11.852;2023-04-15T11:54:32;15.00;67.90
42147;DHT22;27815;43.410;11.852;2023-04-15T11:58:55;15.10;68.00
42147;DHT22;27815;43.410;11.852;2023-04-15T18:25:57;12.00;68.00
42147;DHT22;27815;43.410;11.852;2023-04-15T21:43:14;10.10;70.50
42147;DHT22;27815;43.410;11.852;2023-04-15T22:32:25;10.90;69.10
42147;DHT22;27815;43.410;11.852;2023-04-15T22:42:17;10.90;68.80
42147;DHT22;27815;43.410;11.852;2023-04-15T22:47:05;10.90;68.60
42147;DHT22;27815;43.410;11.852;2023-04-15T22:51:59;10.90;68.50
42147;DHT22;27815;43.410;11.852;2023-04-15T22:56:47;10.90;68.40
42147;DHT22;27815;43.410;11.852;2023-04-15T23:01:15;10.90;68.20
42147;DHT22;27815;43.410;11.852;2023-04-15T23:05:39;10.90;68.20
42147;DHT22;27815;43.410;11.852;2023-04-15T23:15:05;11.00;67.70
42147;DHT22;27815;43.410;11.852;2023-04-15T23:19:59;11.00;67.60
42147;DHT22;27815;43.410;11.852;2023-04-15T23:25:25;11.00;67.20
42147;DHT22;27815;43.410;11.852;2023-04-15T23:35:33;11.10;66.70
42147;DHT22;27815;43.410;11.852;2023-04-15T23:46:06;11.30;65.40
42147;DHT22;27815;43.410;11.852;2023-04-15T23:50:40;11.30;65.20
42147;DHT22;27815;43.410;11.852;2023-04-15T23:55:54;11.30;65.00
